Terminal Aerodrome Forecast
Issued by NWS Brownsville, TX

Home | Current Version | Previous Version | Text Only | Print | Product List | Glossary On
Versions: 1 2 3 4 5 6 7 8 9 10 11 12 13 14 15
446
FTUS44 KBRO 192320
TAFHRL
TAF
KHRL 192320Z 2000/2024 12017G23KT P6SM SKC
     FM200200 14007KT P6SM SKC
     FM201000 14004KT P6SM SCT020
     FM201500 16010KT P6SM SCT030
     FM201900 13013KT P6SM BKN250=

USA.gov is the U.S. government's official web portal to all federal, state and local government web resources and services.